• Join FlightAware (Why Join?)
  • Login
  • US Flag 
09:35PM EST


 

Airport Tracker/Info


-or-


 

Live Flight TrackerFlight Track Log ✈ FIN666 ✈ 05-Jun-2014 ✈ EKCH / CPH - EFHK / HEL

Flight Track Log - Related Links

Times and Time Zones

All times are in EDT time to prevent confusion due to time zone crossing. See the FIN666 flight status page for this flight to view local times or setup timezone preferences in your user account.

Time Position Orientation Groundspeed Altitude Reporting Facility
EDT Latitude Longitude Course Direction KTS MPH feet Rate Location/Type
07:36AM 55.8272 13.0881 49° Northeast  Level Estimated
07:37AM 55.8966 13.2332 49° Northeast  Level Estimated
07:38AM 55.9658 13.3788 50° Northeast  Level Estimated
07:39AM 56.0349 13.5249 50° Northeast  Level Estimated
07:40AM 56.1037 13.6716 50° Northeast  Level Estimated
07:41AM 56.1725 13.8187 50° Northeast  Level Estimated
07:42AM 56.2449 13.9748 50° Northeast  Level Estimated
07:43AM 56.3171 14.1314 50° Northeast  Level Estimated
07:44AM 56.3891 14.2886 50° Northeast  Level Estimated
07:45AM 56.4609 14.4464 50° Northeast  Level Estimated
07:46AM 56.5325 14.6048 51° Northeast  Level Estimated
07:47AM 56.6039 14.7638 51° Northeast  Level Estimated
07:48AM 56.6751 14.9234 51° Northeast  Level Estimated
07:49AM 56.7461 15.0836 51° Northeast  Level Estimated
07:50AM 56.8168 15.2445 51° Northeast  Level Estimated
07:51AM 56.8874 15.4059 51° Northeast  Level Estimated
07:52AM 56.9578 15.5679 51° Northeast  Level Estimated
07:53AM 57.0279 15.7306 52° Northeast  Level Estimated
07:54AM 57.0979 15.8938 52° Northeast  Level Estimated
07:55AM 57.1676 16.0577 52° Northeast  Level Estimated
07:56AM 57.2371 16.2222 52° Northeast  Level Estimated
07:57AM 57.3064 16.3873 52° Northeast  Level Estimated
07:58AM 57.3765 16.5554 52° Northeast  Level Estimated
07:59AM 57.4464 16.7242 52° Northeast  Level Estimated
08:00AM 57.5160 16.8936 53° Northeast  Level Estimated
08:01AM 57.5854 17.0636 53° Northeast  Level Estimated
08:02AM 57.6545 17.2343 53° Northeast  Level Estimated
08:03AM 57.7235 17.4057 53° Northeast  Level Estimated
08:04AM 57.7922 17.5777 53° Northeast  Level Estimated
08:05AM 57.8606 17.7503 53° Northeast  Level Estimated
08:06AM 57.9289 17.9236 53° Northeast  Level Estimated
08:07AM 57.9969 18.0976 54° Northeast  Level Estimated
08:08AM 58.0646 18.2722 54° Northeast  Level Estimated
08:09AM 58.1321 18.4475 54° Northeast  Level Estimated
08:10AM 58.1994 18.6235 54° Northeast  Level Estimated
08:11AM 58.2664 18.8001 54° Northeast  Level Estimated
08:12AM 58.3332 18.9774 54° Northeast  Level Estimated
08:13AM 58.3998 19.1554 54° Northeast  Level Estimated
08:14AM 58.4661 19.3340 55° Northeast  Level Estimated
08:15AM 58.5321 19.5133 55° Northeast  Level Estimated
08:16AM 58.5979 19.6933 55° Northeast  Level Estimated
08:17AM 58.6634 19.8739 55° Northeast  Level Estimated
08:18AM 58.7287 20.0553 55° Northeast  Level Estimated
08:19AM 58.7938 20.2373 55° Northeast  Level Estimated
08:20AM 58.8585 20.4200 56° Northeast  Level Estimated
08:21AM 58.9230 20.6034 56° Northeast  Level Estimated
08:22AM 58.9873 20.7875 56° Northeast  Level Estimated
08:23AM 59.0513 20.9722 56° Northeast  Level Estimated
08:24AM 59.1150 21.1577 56° Northeast  Level Estimated
08:25AM 59.1785 21.3438 56° Northeast  Level Estimated
08:26AM 59.2417 21.5306 56° Northeast  Level Estimated
08:27AM 59.3046 21.7181 57° Northeast  Level Estimated
08:28AM 59.3673 21.9063 57° Northeast  Level Estimated
08:29AM 59.4297 22.0953 57° Northeast  Level Estimated
08:30AM 59.4918 22.2849 57° Northeast  Level Estimated
08:31AM 59.5536 22.4752 57° Northeast  Level Estimated
08:32AM 59.6152 22.6662 57° Northeast  Level Estimated
08:33AM 59.6764 22.8578 58° Northeast  Level Estimated
08:34AM 59.7374 23.0502 58° Northeast  Level Estimated
08:35AM 59.7982 23.2433 58° Northeast  Level Estimated
08:36AM 59.8586 23.4372 58° Northeast  Level Estimated
08:37AM 59.9188 23.6317 58° Northeast  Level Estimated
08:38AM 59.9786 23.8269 58° Northeast  Level Estimated
08:39AM 60.0382 24.0228 59° Northeast  Level Estimated
08:40AM 60.0975 24.2194 59° Northeast  Level Estimated
08:41AM 60.1564 24.4167 59° Northeast  Level Estimated
08:42AM 60.2151 24.6148 59° Northeast  Level Estimated
08:43AM 60.2735 24.8135 59° Northeast  Level Estimated
08:44AM 60.3172 24.9633 59° Northeast  Level Estimated
08:45AM 60.3172 24.9633 North  Level Estimated
08:46AM 60.3172 24.9633 North  Level Estimated
08:47AM 60.3172 24.9633 North  Level Estimated
08:48AM 60.3172 24.9633 North  Level Estimated
08:49AM 60.3172 24.9633 North  Level Estimated
08:50AM 60.3172 24.9633 North  Level Estimated
08:51AM 60.3172 24.9633 North  Level Estimated